createdAt,value
2023-01-29T00:01:47.784Z,19.35
2023-01-29T00:06:49.731Z,18.30
2023-01-29T00:11:51.378Z,19.12
2023-01-29T00:16:54.891Z,20.27
2023-01-29T00:21:56.658Z,16.92
2023-01-29T00:26:58.368Z,19.62
2023-01-29T00:32:01.616Z,20.37
2023-01-29T00:37:03.551Z,19.98
2023-01-29T00:42:06.006Z,19.02
2023-01-29T00:47:09.627Z,18.85
2023-01-29T00:52:11.472Z,18.37
2023-01-29T00:57:13.383Z,17.60
2023-01-29T01:02:17.340Z,19.23
2023-01-29T01:07:19.250Z,20.90
2023-01-29T01:12:21.364Z,18.98
2023-01-29T01:17:25.078Z,19.30
2023-01-29T01:22:39.762Z,19.10
2023-01-29T01:32:44.979Z,19.00
2023-01-29T01:37:46.743Z,19.70
2023-01-29T01:42:49.761Z,19.37
2023-01-29T01:47:57.365Z,19.00
2023-01-29T01:53:02.709Z,19.42
2023-01-29T01:58:09.215Z,18.83
2023-01-29T02:03:13.293Z,17.77
2023-01-29T02:08:18.131Z,17.90
2023-01-29T02:13:20.019Z,18.58
2023-01-29T02:18:23.362Z,20.10
2023-01-29T02:23:52.493Z,19.92
2023-01-29T02:29:02.192Z,18.50
2023-01-29T02:34:15.164Z,18.20
2023-01-29T02:39:23.159Z,18.48
2023-01-29T02:44:34.918Z,18.73
2023-01-29T02:49:43.601Z,17.85
2023-01-29T02:54:51.691Z,18.92
2023-01-29T03:00:21.047Z,18.35
2023-01-29T03:05:30.472Z,17.52
2023-01-29T03:10:37.840Z,18.55
2023-01-29T03:15:45.734Z,18.98
2023-01-29T03:20:52.426Z,18.65
2023-01-29T03:25:59.401Z,17.83
2023-01-29T03:31:04.966Z,19.15
2023-01-29T03:36:10.819Z,18.60
2023-01-29T03:41:20.048Z,18.75
2023-01-29T03:46:30.115Z,18.40
2023-01-29T03:51:38.258Z,19.37
2023-01-29T03:56:54.145Z,17.98
2023-01-29T04:02:00.861Z,17.90
2023-01-29T04:07:08.940Z,20.55
2023-01-29T04:12:14.984Z,17.77
2023-01-29T04:17:25.880Z,17.60
2023-01-29T04:22:33.012Z,17.98
2023-01-29T04:27:44.374Z,17.77
2023-01-29T04:33:01.070Z,19.85
2023-01-29T04:38:17.327Z,19.85
2023-01-29T04:43:36.721Z,18.95
2023-01-29T04:49:28.979Z,19.00
2023-01-29T06:27:53.941Z,19.83
2023-01-29T06:33:10.168Z,17.83
2023-01-29T06:38:13.054Z,17.55
2023-01-29T06:43:19.563Z,19.50
2023-01-29T06:48:23.999Z,19.42
2023-01-29T06:58:32.880Z,18.95
2023-01-29T07:03:36.265Z,21.30
2023-01-29T07:08:38.726Z,20.67
2023-01-29T07:13:42.747Z,18.42
2023-01-29T07:18:44.831Z,18.30
2023-01-29T07:23:46.833Z,17.95
2023-01-29T07:28:50.234Z,18.48
2023-01-29T07:33:52.385Z,19.42
2023-01-29T07:38:54.372Z,18.08
2023-01-29T07:44:00.155Z,20.12
2023-01-29T07:49:02.022Z,19.08
2023-01-29T07:54:04.088Z,21.87
2023-01-29T07:59:07.688Z,21.40
2023-01-29T08:04:10.103Z,20.00
2023-01-29T08:09:12.565Z,19.83
2023-01-29T08:14:16.003Z,20.20
2023-01-29T08:19:18.115Z,22.52
2023-01-29T08:24:20.501Z,21.05
2023-01-29T08:29:24.636Z,21.40
2023-01-29T08:34:33.283Z,21.33
2023-01-29T08:39:35.808Z,21.00
2023-01-29T08:44:45.388Z,21.73
2023-01-29T08:50:00.858Z,21.12
2023-01-29T08:55:10.940Z,20.95
2023-01-29T09:05:55.392Z,21.37
2023-01-29T09:10:58.972Z,21.65
2023-01-29T09:16:02.010Z,21.37
2023-01-29T09:21:10.295Z,22.17
2023-01-29T09:26:12.159Z,23.27
2023-01-29T09:31:14.054Z,20.27
2023-01-29T09:36:17.211Z,20.50
2023-01-29T09:41:33.733Z,22.55
2023-01-29T09:46:40.303Z,21.30
2023-01-29T09:51:49.170Z,20.60
2023-01-29T09:56:54.825Z,20.98
2023-01-29T10:02:05.804Z,20.00
2023-01-29T10:07:33.906Z,21.10
2023-01-29T10:12:58.881Z,19.98
2023-01-29T10:18:15.967Z,22.17
2023-01-29T10:23:24.005Z,20.85
2023-01-29T10:28:29.399Z,20.77
2023-01-29T10:33:49.284Z,21.25
2023-01-29T10:39:02.706Z,20.92
2023-01-29T10:44:27.194Z,21.33
2023-01-29T10:49:50.246Z,19.45
2023-01-29T10:55:03.305Z,20.95
2023-01-29T11:00:10.933Z,22.33
2023-01-29T11:05:23.206Z,20.52
2023-01-29T11:10:26.591Z,21.12
2023-01-29T11:15:32.188Z,20.73
2023-01-29T11:20:34.694Z,21.55
2023-01-29T11:25:37.883Z,20.80
2023-01-29T11:30:41.046Z,21.12
2023-01-29T11:35:42.779Z,22.85
2023-01-29T11:40:46.318Z,19.33
2023-01-29T11:45:50.266Z,19.92
2023-01-29T11:50:53.691Z,19.30
2023-01-29T11:55:59.591Z,20.25
2023-01-29T12:01:01.936Z,20.25
2023-01-29T12:06:08.364Z,18.48
2023-01-29T12:11:27.033Z,19.48
2023-01-29T12:16:33.104Z,20.45
2023-01-29T12:21:43.090Z,19.75
2023-01-29T12:26:51.659Z,19.55
2023-01-29T12:32:01.342Z,19.42
2023-01-29T12:37:09.814Z,19.58
2023-01-29T12:42:18.643Z,20.00
2023-01-29T12:47:24.839Z,20.20
2023-01-29T12:52:37.445Z,20.73
2023-01-29T12:57:46.954Z,21.00
2023-01-29T13:02:54.391Z,20.33
2023-01-29T13:08:02.990Z,20.02
2023-01-29T13:13:14.899Z,20.60
2023-01-29T13:18:37.485Z,20.05
2023-01-29T13:23:43.561Z,20.33
2023-01-29T13:28:47.982Z,18.73
2023-01-29T13:33:55.272Z,19.60
2023-01-29T13:39:02.436Z,20.58
2023-01-29T13:44:18.261Z,19.55
2023-01-29T13:49:39.503Z,21.45
2023-01-29T13:54:50.095Z,20.33
2023-01-29T13:59:55.436Z,21.25
2023-01-29T14:05:46.755Z,20.33
2023-01-29T14:11:27.239Z,20.48
2023-01-29T14:16:35.908Z,20.10
2023-01-29T14:21:38.467Z,20.40
2023-01-29T14:26:44.744Z,17.73
2023-01-29T14:31:51.889Z,18.80
2023-01-29T14:36:56.262Z,18.33
2023-01-29T14:41:59.438Z,18.87
2023-01-29T14:47:02.626Z,18.05
2023-01-29T14:52:04.426Z,17.58
2023-01-29T14:57:10.784Z,20.52
2023-01-29T15:02:18.591Z,19.05
2023-01-29T15:07:29.475Z,17.92
2023-01-29T15:12:36.230Z,18.42
2023-01-29T15:17:45.993Z,19.85
2023-01-29T15:22:47.645Z,19.25
2023-01-29T15:27:49.953Z,18.35
2023-01-29T15:32:53.060Z,18.77
2023-01-29T15:38:03.480Z,20.17
2023-01-29T15:43:20.033Z,19.52
2023-01-29T15:48:31.396Z,19.98
2023-01-29T15:53:37.952Z,20.20
2023-01-29T15:58:40.172Z,19.98
2023-01-29T16:03:44.041Z,20.58
2023-01-29T16:08:50.522Z,22.03
2023-01-29T16:13:52.755Z,22.15
2023-01-29T16:19:00.911Z,20.50
2023-01-29T16:24:07.029Z,20.85
2023-01-29T16:29:10.729Z,22.60
2023-01-29T16:34:27.613Z,24.60
2023-01-29T16:39:32.363Z,21.37
2023-01-29T16:44:36.040Z,22.23
2023-01-29T16:49:49.508Z,22.00
2023-01-29T16:54:51.592Z,22.65
2023-01-29T16:59:55.203Z,22.05
2023-01-29T17:05:01.959Z,22.13
2023-01-29T17:10:06.295Z,24.33
2023-01-29T17:15:43.826Z,23.95
2023-01-29T17:20:47.289Z,21.15
2023-01-29T17:25:49.615Z,21.95
2023-01-29T17:31:05.237Z,23.30
2023-01-29T17:36:12.284Z,24.37
2023-01-29T17:41:21.375Z,24.55
2023-01-29T17:46:23.135Z,25.45
2023-01-29T17:51:26.751Z,25.00
2023-01-29T17:56:28.842Z,25.75
2023-01-29T18:01:30.771Z,26.10
2023-01-29T18:06:34.121Z,24.63
2023-01-29T18:11:36.055Z,25.35
2023-01-29T18:16:38.407Z,27.73
2023-01-29T18:21:56.418Z,27.37
2023-01-29T18:27:30.706Z,25.45
2023-01-29T18:32:32.972Z,28.40
2023-01-29T18:37:45.448Z,29.48
2023-01-29T18:43:07.659Z,29.92
2023-01-29T18:48:15.873Z,26.73
2023-01-29T19:09:17.337Z,24.08
2023-01-29T19:14:19.286Z,26.15
2023-01-29T19:19:21.146Z,25.60
2023-01-29T19:24:33.030Z,27.67
2023-01-29T19:29:34.824Z,26.27
2023-01-29T19:34:36.625Z,27.05
2023-01-29T19:39:43.851Z,27.27
2023-01-29T19:44:45.578Z,25.30
2023-01-29T19:49:47.324Z,24.65
2023-01-29T19:54:50.514Z,25.62
2023-01-29T19:59:52.355Z,24.33
2023-01-29T20:04:54.209Z,25.30
2023-01-29T20:09:57.330Z,26.83
2023-01-29T20:14:59.048Z,24.10
2023-01-29T20:20:00.790Z,25.37
2023-01-29T20:25:06.558Z,26.50
2023-01-29T20:30:09.757Z,29.35
2023-01-29T20:35:11.647Z,25.95
2023-01-29T20:40:16.711Z,26.30
2023-01-29T20:45:19.476Z,25.83
2023-01-29T20:50:21.253Z,27.10
2023-01-29T20:55:24.495Z,26.50
2023-01-29T21:00:26.762Z,24.98
2023-01-29T21:05:28.792Z,26.05
2023-01-29T21:10:31.884Z,27.02
2023-01-29T21:15:36.947Z,27.37
2023-01-29T21:20:38.948Z,26.25
2023-01-29T21:25:42.493Z,26.35
2023-01-29T21:30:44.436Z,27.30
2023-01-29T21:35:46.956Z,28.17
2023-01-29T21:40:52.453Z,26.85
2023-01-29T21:45:59.505Z,28.87
2023-01-29T21:51:01.465Z,25.92
2023-01-29T21:56:07.976Z,27.42
2023-01-29T22:07:04.165Z,25.48
2023-01-29T22:17:09.786Z,25.48
2023-01-29T22:22:13.085Z,25.20
2023-01-29T22:27:18.926Z,26.27
2023-01-29T22:32:25.111Z,27.33
2023-01-29T22:37:33.025Z,25.15
2023-01-29T22:42:45.142Z,26.95
2023-01-29T22:47:46.954Z,27.00
2023-01-29T22:53:25.030Z,26.42
2023-01-29T22:58:28.429Z,27.35
2023-01-29T23:04:03.203Z,27.85
2023-01-29T23:09:16.520Z,26.17
2023-01-29T23:14:19.992Z,26.17
2023-01-29T23:19:21.987Z,27.75
2023-01-29T23:24:23.875Z,25.65
2023-01-29T23:29:27.448Z,25.20
2023-01-29T23:34:29.301Z,26.50
2023-01-29T23:39:31.053Z,25.83
2023-01-29T23:44:34.188Z,25.75
2023-01-29T23:49:35.957Z,26.20
2023-01-29T23:54:37.717Z,25.30
2023-01-29T23:59:41.083Z,24.00
